Fords Branch, Kentucky
Current Conditions -  °F | °C
As of 10:35 AM on Monday 22 Dec 2014 (Local Time) from KPBX Reporting Station
Broken Clouds Broken Clouds  
Wind Chill: 42°   Ceiling: 3800
Heat Index: 44°   Visibility: 10mi
Dew Point: 36°   Wind: 5mph
Humidity: 73%   Direction: 130°SE
Pressure: 30.01"   Gusts: NA
Location:  37.43°N, 82.51°W
Report Text: KPBX 221535Z AUTO 13004KT 10SM SCT027 BKN038 BKN043 07/02 A3001 RMK AO2 T00680022
Loading
Personal Weather Stations






























Interactive Weather Map New forecast layout! Learn more

10-Day Weather Forecast

Advertisements
Track Severe Weather on mobile